M I D A S
Marine Information and Data Acquisition System
Tripno 976 of the Zeeleeuw from 2005-10-21 06:37:41 to 2005-10-21 11:33:22
Back to CruiseResearch ActivitiesStationsMapUnderway DataData graphs

EquipmentUnitsComment
TimeDGPSUTC
LatitudeDGPSDM.mWGS84
LongitudeDGPSDM.mWGS84
HeadingGyrodeg 
SOGDGPSknotsSpeed over ground
COGDGPSdegCourse over ground
DepthEcho soundermeters200 kHz
Missing or incorrect values are displayed as -999
Navigation data collected by the RV Zeeleeuw from 2005-10-21 06:38:08 to 2005-10-21 11:34:33
Time Latitude Longitude Heading SOG COG Depth
2005-10-21 06:39:13 51°13.615 2°56.039 110.4 3.3 289 -999
2005-10-21 06:40:13 51°13.623 2°55.996 122.3 1.2 299 9.2
2005-10-21 06:41:13 51°13.65 2°55.928 128.2 4.1 305 -999
2005-10-21 06:42:13 51°13.691 2°55.821 113.3 4.9 294 -999
2005-10-21 06:43:13 51°13.703 2°55.759 71.4 0.5 7 13.7
2005-10-21 06:44:13 51°13.695 2°55.741 29.7 1 223 -999
2005-10-21 06:45:13 51°13.733 2°55.71 337.8 5.8 331 10
2005-10-21 06:46:13 51°13.856 2°55.611 340.9 9.4 335 9.8
2005-10-21 06:47:13 51°14.005 2°55.508 341.2 10.1 337 10
2005-10-21 06:48:13 51°14.163 2°55.383 337.3 11.3 331 10.1
2005-10-21 06:49:13 51°14.306 2°55.169 311.7 12.6 306 10.1
2005-10-21 06:50:13 51°14.391 2°54.854 294.6 13.4 288 9.4
2005-10-21 06:51:13 51°14.453 2°54.502 291.9 14 283 9.8
2005-10-21 06:52:13 51°14.48 2°54.141 273.9 13.7 266 9.5
2005-10-21 06:53:13 51°14.391 2°53.812 243.5 13.7 240 9.4
2005-10-21 06:54:13 51°14.252 2°53.529 227.9 13.6 223 9.4
2005-10-21 06:55:13 51°14.071 2°53.313 215.3 13.6 213 9.4
2005-10-21 06:56:13 51°13.871 2°53.152 205.1 13.5 205 9
2005-10-21 06:57:13 51°13.691 2°52.936 230.1 13.8 230 8.9
2005-10-21 06:58:13 51°13.568 2°52.625 244.5 14 240 9.2
2005-10-21 06:59:13 51°13.448 2°52.307 244.5 14 242 9.1
2005-10-21 07:00:13 51°13.338 2°51.981 244.5 13.9 240 9.2
2005-10-21 07:01:13 51°13.228 2°51.658 246.7 13.8 242 9.2
2005-10-21 07:02:13 51°13.118 2°51.338 247.5 13.8 243 9.2
2005-10-21 07:03:13 51°13.006 2°51.014 245.8 13.9 241 9.3
2005-10-21 07:04:13 51°12.895 2°50.697 244.4 13.8 240 9.4
2005-10-21 07:05:13 51°12.787 2°50.373 246.7 13.8 242 9.4
2005-10-21 07:06:13 51°12.679 2°50.048 247.5 13.9 243 9.4
2005-10-21 07:07:13 51°12.572 2°49.722 247.3 13.9 243 9.4
2005-10-21 07:08:13 51°12.464 2°49.396 247.2 13.9 243 9.5
2005-10-21 07:09:13 51°12.357 2°49.069 247.2 14 243 9.6
2005-10-21 07:10:13 51°12.248 2°48.742 246.9 14 243 9.6
2005-10-21 07:11:13 51°12.139 2°48.415 246.2 14 243 9.7
2005-10-21 07:12:13 51°12.031 2°48.086 246.1 14.1 243 9.7
2005-10-21 07:13:13 51°11.931 2°47.75 248.4 14 244 9.7
2005-10-21 07:14:13 51°11.831 2°47.414 247.7 14.1 244 9.6
2005-10-21 07:15:13 51°11.736 2°47.075 251.8 14 248 9.6
2005-10-21 07:16:13 51°11.649 2°46.729 251.3 14.1 247 9.8
2005-10-21 07:17:13 51°11.564 2°46.38 252.1 14.1 248 10.1
2005-10-21 07:18:13 51°11.479 2°46.032 253.8 14.1 251 10.2
2005-10-21 07:19:13 51°11.408 2°45.675 255.9 14.1 252 10.5
2005-10-21 07:20:13 51°11.337 2°45.317 256.7 14.2 253 10.5
2005-10-21 07:21:13 51°11.266 2°44.959 256.3 14.2 253 10.7
2005-10-21 07:22:13 51°11.199 2°44.6 258.1 14.2 255 10.8
2005-10-21 07:23:13 51°11.138 2°44.237 258.8 14.2 256 10.9
2005-10-21 07:24:13 51°11.077 2°43.875 258.1 14.1 255 11
2005-10-21 07:25:13 51°11.016 2°43.513 258.3 14.1 255 11.1
2005-10-21 07:26:13 51°10.956 2°43.151 258.7 14.1 256 11.2
2005-10-21 07:27:13 51°10.895 2°42.79 257.9 14.1 255 11.2
2005-10-21 07:28:13 51°10.835 2°42.428 258.4 14.2 255 11.3
2005-10-21 07:29:13 51°10.776 2°42.066 258.4 14.2 255 11.3
2005-10-21 07:30:13 51°10.716 2°41.703 258.1 14.1 255 11.4
2005-10-21 07:31:13 51°10.658 2°41.338 258.1 14.2 255 11.5
2005-10-21 07:32:13 51°10.599 2°40.974 257.7 14.2 255 11.5
2005-10-21 07:33:13 51°10.54 2°40.609 257.7 14.2 256 11.7
2005-10-21 07:34:13 51°10.483 2°40.243 257.8 14.3 256 12.3
2005-10-21 07:35:13 51°10.425 2°39.876 258.4 14.3 256 12.8
2005-10-21 07:36:13 51°10.369 2°39.509 258.1 14.3 256 13.3
2005-10-21 07:37:13 51°10.312 2°39.142 258.4 14.3 257 14.4
2005-10-21 07:38:13 51°10.255 2°38.775 258.3 14.3 256 14.8
2005-10-21 07:39:13 51°10.198 2°38.408 258.4 14.3 256 14.7
2005-10-21 07:40:13 51°10.142 2°38.041 258.4 14.3 257 15.5
2005-10-21 07:41:13 51°10.085 2°37.675 257.8 14.2 256 16.3
2005-10-21 07:42:13 51°10.029 2°37.31 258.8 14.2 257 16.6
2005-10-21 07:43:13 51°9.984 2°36.94 267.2 14.3 265 16.8
2005-10-21 07:44:13 51°9.984 2°36.562 275.2 14.3 272 16.5
2005-10-21 07:45:13 51°9.995 2°36.185 276.3 14.2 272 16.9
2005-10-21 07:46:13 51°10.056 2°35.834 307.3 13.5 307 15.1
2005-10-21 07:47:13 51°10.249 2°35.757 11.6 12.1 10 9.6
2005-10-21 07:48:13 51°10.416 2°35.932 44.2 12.2 39 9.9
2005-10-21 07:49:13 51°10.584 2°36.114 40 12.2 34 9.6
2005-10-21 07:50:13 51°10.759 2°36.285 37.4 12.4 31 10
2005-10-21 07:51:13 51°10.935 2°36.454 37.6 12.3 32 10.8
2005-10-21 07:52:13 51°11.111 2°36.621 37.3 12.3 31 11.2
2005-10-21 07:53:13 51°11.286 2°36.789 37.5 12.3 30 11.4
2005-10-21 07:54:13 51°11.462 2°36.954 37.4 12.2 31 11.8
2005-10-21 07:55:13 51°11.639 2°37.118 37.2 12.2 29 11.8
2005-10-21 07:56:13 51°11.814 2°37.28 36.8 12.2 30 11.8
2005-10-21 07:57:13 51°11.99 2°37.443 37.5 12.2 30 11.5
2005-10-21 07:58:13 51°12.165 2°37.607 37.9 12.1 31 11.3
2005-10-21 07:59:13 51°12.341 2°37.769 37.3 12.2 30 11.5
2005-10-21 08:00:13 51°12.516 2°37.931 37.1 12.2 30 11.7
2005-10-21 08:01:13 51°12.693 2°38.095 37 12.3 30 11.8
2005-10-21 08:02:13 51°12.876 2°38.237 29.8 12.3 23 12.3
2005-10-21 08:03:13 51°13.062 2°38.376 33 12.4 25 12.6
2005-10-21 08:04:13 51°13.249 2°38.516 33 12.4 25 13
2005-10-21 08:05:13 51°13.438 2°38.647 30.6 12.4 22 13.2
2005-10-21 08:06:13 51°13.63 2°38.768 28.7 12.4 22 13.4
2005-10-21 08:07:13 51°13.836 2°38.822 17.8 12.6 8 12.3
2005-10-21 08:08:13 51°14.046 2°38.81 356.1 12.9 343 10.3
2005-10-21 08:09:13 51°14.207 2°38.584 309.1 13.5 305 14.8
2005-10-21 08:10:13 51°14.212 2°38.224 268.5 14 263 17
2005-10-21 08:11:13 51°14.133 2°37.878 245.5 14 242 18.4
2005-10-21 08:12:13 51°14.02 2°37.549 243.9 14.1 244 18.7
2005-10-21 08:13:13 51°13.92 2°37.209 247 14.1 245 19.2
2005-10-21 08:14:13 51°13.821 2°36.866 247.8 14.2 246 19.3
2005-10-21 08:15:13 51°13.723 2°36.523 247.6 14.2 245 18.3
2005-10-21 08:16:13 51°13.626 2°36.178 247.8 14.3 246 16.9
2005-10-21 08:17:13 51°13.529 2°35.834 248.3 14.1 246 15.5
2005-10-21 08:18:13 51°13.431 2°35.491 248 14.2 246 15.9
2005-10-21 08:19:13 51°13.332 2°35.149 248.1 14.3 246 15.3
2005-10-21 08:20:13 51°13.234 2°34.806 248.5 14.2 245 15.7
2005-10-21 08:21:13 51°13.134 2°34.465 248 14.2 245 15.1
2005-10-21 08:22:13 51°13.035 2°34.125 248.4 14.1 245 14.2
2005-10-21 08:23:13 51°12.935 2°33.786 248.3 14.1 245 12.8
2005-10-21 08:24:13 51°12.834 2°33.447 248.5 14.1 245 13.6
2005-10-21 08:25:13 51°12.732 2°33.11 248.7 14.2 244 14.4
2005-10-21 08:26:13 51°12.629 2°32.772 247.9 14.2 244 16.2
2005-10-21 08:27:13 51°12.528 2°32.435 250.4 14.1 246 17.7
2005-10-21 08:28:13 51°12.435 2°32.091 251.4 14.1 247 19.9
2005-10-21 08:29:13 51°12.34 2°31.747 250.8 14.2 246 21.5
2005-10-21 08:30:13 51°12.245 2°31.402 251 14.2 246 21.5
2005-10-21 08:31:13 51°12.152 2°31.055 252.1 14.2 247 21.4
2005-10-21 08:32:13 51°12.057 2°30.707 251.8 14.4 247 21.2
2005-10-21 08:33:13 51°11.961 2°30.36 251.3 14.3 247 21
2005-10-21 08:34:13 51°11.866 2°30.011 251.4 14.4 247 20.9
2005-10-21 08:35:13 51°11.771 2°29.661 251.1 14.4 247 21.4
2005-10-21 08:36:13 51°11.679 2°29.307 252.3 14.6 250 22.7
2005-10-21 08:37:13 51°11.607 2°28.937 258.1 14.7 254 22
2005-10-21 08:38:13 51°11.537 2°28.563 258.1 14.8 253 20.1
2005-10-21 08:39:13 51°11.476 2°28.184 262.2 14.9 257 20.5
2005-10-21 08:40:13 51°11.423 2°27.798 260.9 14.8 258 20.3
2005-10-21 08:41:13 51°11.372 2°27.414 261.3 14.8 258 20.1
2005-10-21 08:42:13 51°11.322 2°27.033 260.3 14.7 257 18.3
2005-10-21 08:43:13 51°11.27 2°26.653 260.5 14.6 256 16.4
2005-10-21 08:44:13 51°11.22 2°26.273 260.1 14.6 258 14.5
2005-10-21 08:45:13 51°11.171 2°25.894 261.5 14.6 260 12.4
2005-10-21 08:46:13 51°11.177 2°25.518 291.6 14.3 288 12.8
2005-10-21 08:47:13 51°11.334 2°25.278 342.7 12.9 334 22.3
2005-10-21 08:48:13 51°11.536 2°25.237 17.1 12.1 12 23.3
2005-10-21 08:49:13 51°11.71 2°25.386 41.6 11.9 36 24
2005-10-21 08:50:13 51°11.871 2°25.57 42.3 12 36 23.3
2005-10-21 08:51:13 51°12.019 2°25.776 46.6 11.8 43 23.1
2005-10-21 08:52:13 51°12.167 2°25.985 46.4 11.9 40 24.1
2005-10-21 08:53:13 51°12.317 2°26.19 45 11.9 40 24
2005-10-21 08:54:13 51°12.469 2°26.393 44.7 11.9 40 24.1
2005-10-21 08:55:13 51°12.625 2°26.586 43.8 11.9 38 23.8
2005-10-21 08:56:13 51°12.779 2°26.784 44.8 11.9 39 23.1
2005-10-21 08:57:13 51°12.934 2°26.978 43.5 11.8 41 23.4
2005-10-21 08:58:13 51°13.09 2°27.171 43.3 11.9 36 23.2
2005-10-21 08:59:13 51°13.245 2°27.369 45.4 11.9 39 23.3
2005-10-21 09:00:13 51°13.397 2°27.571 45.4 11.9 40 23.1
2005-10-21 09:01:13 51°13.547 2°27.772 44.6 11.8 39 24
2005-10-21 09:02:13 51°13.698 2°27.977 45.7 12 41 23.8
2005-10-21 09:03:13 51°13.85 2°28.179 46 11.8 42 24
2005-10-21 09:04:13 51°14 2°28.384 45.9 11.9 39 24.6
2005-10-21 09:05:13 51°14.15 2°28.589 45.7 11.8 42 24.4
2005-10-21 09:06:13 51°14.3 2°28.796 46.4 11.9 41 25.4
2005-10-21 09:07:13 51°14.451 2°29.001 45.2 11.8 40 25.9
2005-10-21 09:08:13 51°14.601 2°29.204 46.2 11.8 40 26
2005-10-21 09:09:13 51°14.752 2°29.406 44.9 11.8 40 26
2005-10-21 09:10:13 51°14.905 2°29.605 45 11.8 40 26.3
2005-10-21 09:11:13 51°15.057 2°29.807 45.4 11.9 40 26.4
2005-10-21 09:12:13 51°15.21 2°30.004 44.7 11.8 40 26.5
2005-10-21 09:13:13 51°15.361 2°30.201 45.5 11.8 40 26.6
2005-10-21 09:14:13 51°15.51 2°30.404 45.6 11.8 40 26.5
2005-10-21 09:15:13 51°15.662 2°30.6 44.5 11.8 39 26.7
2005-10-21 09:16:13 51°15.813 2°30.795 44.2 11.7 39 26.6
2005-10-21 09:17:13 51°15.964 2°30.993 45.5 11.7 41 26.8
2005-10-21 09:18:13 51°16.114 2°31.19 44.3 11.6 39 27
2005-10-21 09:19:13 51°16.264 2°31.391 46.4 11.9 42 27.3
2005-10-21 09:20:13 51°16.415 2°31.592 45.7 11.9 38 26.8
2005-10-21 09:21:13 51°16.566 2°31.794 46.3 12 40 25.6
2005-10-21 09:22:13 51°16.715 2°31.999 46.7 11.8 39 25.3
2005-10-21 09:23:13 51°16.867 2°32.2 45.1 11.9 38 25.9
2005-10-21 09:24:13 51°17.018 2°32.398 45.8 11.5 42 24.4
2005-10-21 09:25:13 51°17.167 2°32.597 45.8 11.7 41 25.6
2005-10-21 09:26:13 51°17.319 2°32.798 46.3 11.8 40 26.5
2005-10-21 09:27:13 51°17.47 2°32.996 47.9 11.7 41 26
2005-10-21 09:28:13 51°17.619 2°33.189 43.7 11.5 39 26.2
2005-10-21 09:29:13 51°17.77 2°33.379 44.7 11.5 38 26.9
2005-10-21 09:30:13 51°17.922 2°33.571 45.5 11.6 39 26.2
2005-10-21 09:31:13 51°18.071 2°33.767 43.8 11.5 37 25.5
2005-10-21 09:32:13 51°18.221 2°33.959 46.6 11.4 41 23.3
2005-10-21 09:33:13 51°18.371 2°34.146 43.8 11.6 34 19.9
2005-10-21 09:34:13 51°18.519 2°34.338 45.5 11.3 38 20.9
2005-10-21 09:35:13 51°18.668 2°34.531 46.1 11.7 39 17.7
2005-10-21 09:36:13 51°18.817 2°34.724 44.5 11.6 36 21.9
2005-10-21 09:37:13 51°18.966 2°34.913 44.5 11.5 41 20.5
2005-10-21 09:38:13 51°19.114 2°35.108 45.6 11.6 39 20.8
2005-10-21 09:39:13 51°19.263 2°35.298 46.5 11.4 39 19.9
2005-10-21 09:40:13 51°19.411 2°35.487 44.3 11.4 38 19.2
2005-10-21 09:41:13 51°19.56 2°35.679 44.7 11.6 39 19
2005-10-21 09:42:13 51°19.709 2°35.872 44.8 11.3 37 20
2005-10-21 09:43:13 51°19.856 2°36.066 45.7 11.6 39 19.4
2005-10-21 09:44:13 51°20.006 2°36.254 45.7 11.5 41 20.7
2005-10-21 09:45:13 51°20.157 2°36.442 45 11.5 37 20.8
2005-10-21 09:46:13 51°20.306 2°36.641 45.2 11.5 40 21.6
2005-10-21 09:47:13 51°20.455 2°36.836 45.3 11.5 40 22
2005-10-21 09:48:13 51°20.55 2°37.087 77 11.2 78 21.8
2005-10-21 09:49:13 51°20.574 2°37.391 84.6 11.6 84 23
2005-10-21 09:50:13 51°20.595 2°37.7 85.2 11.6 82 21.9
2005-10-21 09:51:13 51°20.61 2°38.007 87.7 11.6 86 22.4
2005-10-21 09:52:13 51°20.621 2°38.316 87.4 11.5 88 22.9
2005-10-21 09:53:13 51°20.632 2°38.623 88.4 11.6 89 24
2005-10-21 09:54:13 51°20.629 2°38.932 93.7 11.6 92 23.9
2005-10-21 09:55:13 51°20.623 2°39.241 91.5 11.7 91 24.5
2005-10-21 09:56:13 51°20.619 2°39.555 92.5 11.7 91 25.1
2005-10-21 09:57:13 51°20.615 2°39.868 91.9 11.8 91 25.5
2005-10-21 09:58:13 51°20.613 2°40.181 91 11.9 90 26.7
2005-10-21 09:59:13 51°20.61 2°40.498 92.1 11.9 92 25.5
2005-10-21 10:00:13 51°20.611 2°40.809 90.4 11.6 89 26.9
2005-10-21 10:01:13 51°20.615 2°41.113 90.6 11.5 88 27.5
2005-10-21 10:02:13 51°20.618 2°41.422 91 11.6 88 24
2005-10-21 10:03:13 51°20.622 2°41.732 91.6 11.7 86 21.7
2005-10-21 10:04:13 51°20.621 2°42.042 91.1 11.5 88 20
2005-10-21 10:05:13 51°20.622 2°42.344 91.8 11.4 90 18.7
2005-10-21 10:06:13 51°20.62 2°42.646 91.2 11.5 90 18.4
2005-10-21 10:07:13 51°20.617 2°42.951 91.2 11.4 91 21
2005-10-21 10:08:13 51°20.615 2°43.254 91.1 11.3 91 24.6
2005-10-21 10:09:13 51°20.613 2°43.558 91.2 11.4 90 26.1
2005-10-21 10:10:13 51°20.611 2°43.865 90.9 11.5 90 26.4
2005-10-21 10:11:13 51°20.609 2°44.169 90.6 11.5 89 27.5
2005-10-21 10:12:13 51°20.607 2°44.478 91.2 11.6 92 27.1
2005-10-21 10:13:13 51°20.605 2°44.785 91.1 11.6 91 25.3
2005-10-21 10:14:13 51°20.605 2°45.092 91 11.5 91 26.4
2005-10-21 10:15:13 51°20.605 2°45.398 90.3 11.5 89 24.2
2005-10-21 10:16:13 51°20.6 2°45.704 93.3 11.6 92 23.9
2005-10-21 10:17:13 51°20.593 2°46.013 94 11.6 93 22
2005-10-21 10:18:13 51°20.586 2°46.322 93.6 11.8 92 22.2
2005-10-21 10:19:13 51°20.58 2°46.634 93.9 11.5 92 19.6
2005-10-21 10:20:13 51°20.572 2°46.944 93.4 11.7 92 17
2005-10-21 10:21:13 51°20.562 2°47.253 92.7 11.6 92 17.7
2005-10-21 10:22:13 51°20.554 2°47.562 93.6 11.7 93 18.3
2005-10-21 10:23:13 51°20.543 2°47.87 92.1 11.6 93 20.2
2005-10-21 10:24:13 51°20.532 2°48.178 92.9 11.5 92 21.2
2005-10-21 10:25:13 51°20.445 2°48.452 123.7 11.9 128 22.3
2005-10-21 10:26:13 51°20.262 2°48.603 158.3 13.1 164 22.6
2005-10-21 10:27:13 51°20.037 2°48.567 195.4 14.2 201 22.1
2005-10-21 10:28:13 51°19.833 2°48.369 214.3 14.6 216 21.9
2005-10-21 10:29:13 51°19.642 2°48.134 217 14.5 217 21.6
2005-10-21 10:30:13 51°19.45 2°47.898 217.4 14.5 217 20.8
2005-10-21 10:31:13 51°19.26 2°47.666 218 14.4 218 20.3
2005-10-21 10:32:13 51°19.071 2°47.433 218.4 14.4 218 20.1
2005-10-21 10:33:13 51°18.883 2°47.199 218.4 14.4 218 19.3
2005-10-21 10:34:13 51°18.692 2°46.969 218.2 14.2 217 18.9
2005-10-21 10:35:13 51°18.504 2°46.741 218.4 14.1 217 18.5
2005-10-21 10:36:13 51°18.316 2°46.511 217.9 14.3 217 17.5
2005-10-21 10:37:13 51°18.127 2°46.279 219.7 14.3 218 17.9
2005-10-21 10:38:13 51°17.94 2°46.049 219.4 14 218 15.4
2005-10-21 10:39:13 51°17.754 2°45.823 218.9 14.2 217 15.6
2005-10-21 10:40:13 51°17.567 2°45.596 219.7 14.1 218 15.6
2005-10-21 10:41:13 51°17.381 2°45.371 219 14 217 14.1
2005-10-21 10:42:13 51°17.195 2°45.146 219.2 13.9 217 12.8
2005-10-21 10:43:13 51°17.01 2°44.923 219.2 13.9 217 14
2005-10-21 10:44:13 51°16.826 2°44.701 219.4 13.9 217 13.2
2005-10-21 10:45:13 51°16.642 2°44.479 219.9 13.9 218 13.1
2005-10-21 10:46:13 51°16.457 2°44.265 217.3 13.7 215 12.7
2005-10-21 10:47:13 51°16.263 2°44.071 209 13.6 205 12.3
2005-10-21 10:48:13 51°16.046 2°43.964 195.3 13.6 192 11.7
2005-10-21 10:49:13 51°15.827 2°43.98 166.2 13 161 11.4
2005-10-21 10:50:13 51°15.696 2°44.226 113.4 12.4 111 12.5
2005-10-21 10:51:13 51°15.67 2°44.552 93.6 12.5 93 12.8
2005-10-21 10:52:13 51°15.656 2°44.88 95.3 12.4 93 13.6
2005-10-21 10:53:13 51°15.642 2°45.215 95 12.7 93 15.3
2005-10-21 10:54:13 51°15.627 2°45.548 96.8 12.5 94 17
2005-10-21 10:55:13 51°15.62 2°45.879 94.3 12.6 92 17.8
2005-10-21 10:56:13 51°15.612 2°46.213 93.7 12.6 90 17.1
2005-10-21 10:57:13 51°15.606 2°46.544 95 12.5 93 16.3
2005-10-21 10:58:13 51°15.598 2°46.872 94.7 12.3 92 15.3
2005-10-21 10:59:13 51°15.591 2°47.198 94.6 12.4 92 14.4
2005-10-21 11:00:13 51°15.582 2°47.525 93.9 12.4 92 13.1
2005-10-21 11:01:13 51°15.573 2°47.852 95.5 12.4 94 11.8
2005-10-21 11:02:13 51°15.562 2°48.179 94.9 12.4 93 11.1
2005-10-21 11:03:13 51°15.55 2°48.509 95 12.5 94 10.6
2005-10-21 11:04:13 51°15.54 2°48.84 94.8 12.6 95 10.9
2005-10-21 11:05:13 51°15.532 2°49.175 94.2 12.7 92 12.6
2005-10-21 11:06:13 51°15.524 2°49.513 93.7 12.8 91 13.3
2005-10-21 11:07:13 51°15.516 2°49.848 95.1 12.6 93 13.3
2005-10-21 11:08:13 51°15.507 2°50.183 93.8 12.6 92 13.3
2005-10-21 11:09:13 51°15.499 2°50.518 93.2 12.5 91 13.3
2005-10-21 11:10:13 51°15.473 2°50.848 99.2 12.5 99 13.2
2005-10-21 11:11:13 51°15.443 2°51.179 101.4 12.6 99 13
2005-10-21 11:12:13 51°15.364 2°51.488 117.5 12.5 117 12.8
2005-10-21 11:13:13 51°15.252 2°51.766 123.3 12.4 123 12.3
2005-10-21 11:14:13 51°15.14 2°52.044 122.6 12.4 123 11.7
2005-10-21 11:15:13 51°15.047 2°52.338 115.5 12.5 114 11
2005-10-21 11:16:13 51°14.961 2°52.641 114.8 12.5 112 10.9
2005-10-21 11:17:13 51°14.876 2°52.943 114.3 12.6 113 10.9
2005-10-21 11:18:13 51°14.788 2°53.245 115.8 12.5 115 10.4
2005-10-21 11:19:13 51°14.706 2°53.545 116.3 11.6 115 10.3
2005-10-21 11:20:13 51°14.637 2°53.809 110.9 12.1 109 10.6
2005-10-21 11:21:13 51°14.571 2°54.128 110.5 12.7 109 10.9
2005-10-21 11:22:13 51°14.504 2°54.444 111.3 12.5 109 10.5
2005-10-21 11:23:13 51°14.437 2°54.762 111.5 12.7 109 10.6
2005-10-21 11:24:13 51°14.355 2°55.067 121 12.1 119 11.1
2005-10-21 11:25:13 51°14.233 2°55.307 139.8 10.7 138 11.9
2005-10-21 11:26:13 51°14.102 2°55.43 158.2 7.7 155 -999
2005-10-21 11:27:13 51°13.991 2°55.511 157.9 7.2 155 10.7
2005-10-21 11:28:13 51°13.871 2°55.601 157.1 8.3 155 10.2
2005-10-21 11:29:13 51°13.764 2°55.707 141.8 6.4 137 9.4
2005-10-21 11:30:13 51°13.695 2°55.827 134.3 5.9 132 9.4
2005-10-21 11:31:13 51°13.643 2°55.942 128.1 5 124 9.7
2005-10-21 11:32:13 51°13.616 2°56.042 107.5 2.7 102 10.1
2005-10-21 11:33:13 51°13.607 2°56.087 122.3 0.9 132 7.2
2005-10-21 11:34:13 51°13.601 2°56.099 121.2 0.4 108 6.8